CheckWX is a tool to help pilots better visualize weather data.  It is not intended as a substitute for an official pre-flight weather briefing.

03:21:59 UTC

PABV METAR
Birchwood Airport
Birchwood, Alaska, USA
Current

26 mins ago

PABV 220256Z AUTO 23004KT 1 3/4SM -SN BR OVC017 M08/M10 A2951 RMK AO2 SLP999 P0000 60000 T10831100 53002 FZRANO
Observed
Jan-22 @ 02:56 UTC
Wind
  • 230° at 4 KTS
Visibility
1 3/4 SM
Flight Rules
IFR
Conditions
Light Snow, Mist
Cloud Levels
  • Overcast at 1,700' AGL
Temperature
-8°C / 18°F
Dewpoint
-10°C / 14°F
Humidity
86%
Altimeter
29.51" Hg
Pressure
999.32 hPa
Current Rain
0.01"
Previous

51 mins ago

PABV 220231Z AUTO 22004KT 2 1/2SM -SN BR OVC017 M08/M10 A2950 RMK AO2 VIS 2V4 P0000 FZRANO
Observed
Jan-22 @ 02:31 UTC
Wind
  • 220° at 4 KTS
Visibility
2 1/2 SM
Flight Rules
IFR
Conditions
Light Snow, Mist
Cloud Levels
  • Overcast at 1,700' AGL
Temperature
-8°C / 18°F
Dewpoint
-10°C / 14°F
Humidity
86%
Altimeter
29.5" Hg
Pressure
999.02 hPa
Current Rain
0.01"
Previous

1 hour ago

PABV 220216Z AUTO 22003KT 1 1/4SM -SN BR BKN017 OVC024 M08/M10 A2950 RMK AO2 P0000 FZRANO
Observed
Jan-22 @ 02:16 UTC
Wind
  • 220° at 3 KTS
Visibility
1 1/4 SM
Flight Rules
IFR
Conditions
Light Snow, Mist
Cloud Levels
  • Broken at 1,700' AGL
  • Overcast at 2,400' AGL
Temperature
-8°C / 18°F
Dewpoint
-10°C / 14°F
Humidity
86%
Altimeter
29.5" Hg
Pressure
999.02 hPa
Current Rain
0.01"